sensor_id;sensor_type;location;lat;lon;timestamp;pressure;altitude;pressure_sealevel;temperature;humidity
62632;BME280;48703;51.248;-0.546;2023-04-28T00:00:38;100173;;;11.32;98.95
62632;BME280;48703;51.248;-0.546;2023-04-28T00:03:40;100169;;;11.33;99.07
62632;BME280;48703;51.248;-0.546;2023-04-28T00:06:42;100157;;;11.34;99.28
62632;BME280;48703;51.248;-0.546;2023-04-28T00:09:44;100155;;;11.35;99.20
62632;BME280;48703;51.248;-0.546;2023-04-28T00:12:46;100153;;;11.36;99.33
62632;BME280;48703;51.248;-0.546;2023-04-28T00:15:48;100151;;;11.37;99.21
62632;BME280;48703;51.248;-0.546;2023-04-28T00:18:50;100150;;;11.39;99.92
62632;BME280;48703;51.248;-0.546;2023-04-28T00:21:52;100159;;;11.41;100.00
62632;BME280;48703;51.248;-0.546;2023-04-28T00:24:54;100155;;;11.40;99.68
62632;BME280;48703;51.248;-0.546;2023-04-28T00:27:56;100151;;;11.41;99.97
62632;BME280;48703;51.248;-0.546;2023-04-28T00:30:58;100154;;;11.44;100.00
62632;BME280;48703;51.248;-0.546;2023-04-28T00:34:00;100150;;;11.43;99.90
62632;BME280;48703;51.248;-0.546;2023-04-28T00:37:02;100146;;;11.43;99.47
62632;BME280;48703;51.248;-0.546;2023-04-28T00:40:04;100142;;;11.45;99.94
62632;BME280;48703;51.248;-0.546;2023-04-28T00:43:06;100141;;;11.46;100.00
62632;BME280;48703;51.248;-0.546;2023-04-28T00:46:08;100142;;;11.46;99.94
62632;BME280;48703;51.248;-0.546;2023-04-28T00:49:10;100141;;;11.48;100.00
62632;BME280;48703;51.248;-0.546;2023-04-28T00:52:12;100137;;;11.49;100.00
62632;BME280;48703;51.248;-0.546;2023-04-28T00:55:14;100136;;;11.50;100.00
62632;BME280;48703;51.248;-0.546;2023-04-28T00:58:16;100131;;;11.51;99.98
62632;BME280;48703;51.248;-0.546;2023-04-28T01:01:18;100131;;;11.52;99.99
62632;BME280;48703;51.248;-0.546;2023-04-28T01:04:20;100126;;;11.52;99.78
62632;BME280;48703;51.248;-0.546;2023-04-28T01:07:22;100123;;;11.52;99.69
62632;BME280;48703;51.248;-0.546;2023-04-28T01:10:24;100130;;;11.53;99.46
62632;BME280;48703;51.248;-0.546;2023-04-28T01:13:26;100133;;;11.54;99.52
62632;BME280;48703;51.248;-0.546;2023-04-28T01:16:28;100134;;;11.54;99.65
62632;BME280;48703;51.248;-0.546;2023-04-28T01:19:30;100135;;;11.55;99.70
62632;BME280;48703;51.248;-0.546;2023-04-28T01:22:32;100136;;;11.55;99.60
62632;BME280;48703;51.248;-0.546;2023-04-28T01:25:34;100138;;;11.55;99.64
62632;BME280;48703;51.248;-0.546;2023-04-28T01:28:36;100139;;;11.56;99.89
62632;BME280;48703;51.248;-0.546;2023-04-28T01:31:38;100137;;;11.57;99.60
62632;BME280;48703;51.248;-0.546;2023-04-28T01:34:40;100136;;;11.58;99.80
62632;BME280;48703;51.248;-0.546;2023-04-28T01:37:42;100132;;;11.60;99.99
62632;BME280;48703;51.248;-0.546;2023-04-28T01:40:44;100137;;;11.62;99.97
62632;BME280;48703;51.248;-0.546;2023-04-28T01:43:46;100141;;;11.62;99.90
62632;BME280;48703;51.248;-0.546;2023-04-28T01:46:48;100145;;;11.62;99.81
62632;BME280;48703;51.248;-0.546;2023-04-28T01:49:50;100145;;;11.63;100.00
62632;BME280;48703;51.248;-0.546;2023-04-28T01:52:52;100141;;;11.63;99.60
62632;BME280;48703;51.248;-0.546;2023-04-28T01:55:54;100148;;;11.65;99.82
62632;BME280;48703;51.248;-0.546;2023-04-28T01:58:56;100151;;;11.66;99.87
62632;BME280;48703;51.248;-0.546;2023-04-28T02:01:58;100155;;;11.68;100.00
62632;BME280;48703;51.248;-0.546;2023-04-28T02:05:00;100148;;;11.70;100.00
62632;BME280;48703;51.248;-0.546;2023-04-28T02:08:03;100152;;;11.69;100.00
62632;BME280;48703;51.248;-0.546;2023-04-28T02:11:04;100159;;;11.70;100.00
62632;BME280;48703;51.248;-0.546;2023-04-28T02:14:06;100162;;;11.69;100.00
62632;BME280;48703;51.248;-0.546;2023-04-28T02:17:08;100165;;;11.69;100.00
62632;BME280;48703;51.248;-0.546;2023-04-28T02:20:11;100164;;;11.72;100.00
62632;BME280;48703;51.248;-0.546;2023-04-28T02:23:12;100164;;;11.71;99.91
62632;BME280;48703;51.248;-0.546;2023-04-28T02:26:15;100164;;;11.71;99.52
62632;BME280;48703;51.248;-0.546;2023-04-28T02:29:17;100161;;;11.72;99.85
62632;BME280;48703;51.248;-0.546;2023-04-28T02:32:19;100160;;;11.72;99.73
62632;BME280;48703;51.248;-0.546;2023-04-28T02:35:21;100159;;;11.72;99.62
62632;BME280;48703;51.248;-0.546;2023-04-28T02:38:23;100154;;;11.72;99.48
62632;BME280;48703;51.248;-0.546;2023-04-28T02:41:25;100155;;;11.72;99.55
62632;BME280;48703;51.248;-0.546;2023-04-28T02:44:27;100158;;;11.71;99.44
62632;BME280;48703;51.248;-0.546;2023-04-28T02:47:29;100160;;;11.71;99.52
62632;BME280;48703;51.248;-0.546;2023-04-28T02:50:31;100163;;;11.71;99.59
62632;BME280;48703;51.248;-0.546;2023-04-28T02:53:33;100171;;;11.71;99.53
62632;BME280;48703;51.248;-0.546;2023-04-28T02:56:35;100174;;;11.71;99.67
62632;BME280;48703;51.248;-0.546;2023-04-28T02:59:37;100172;;;11.70;99.35
62632;BME280;48703;51.248;-0.546;2023-04-28T03:02:39;100174;;;11.70;98.78
62632;BME280;48703;51.248;-0.546;2023-04-28T03:05:41;100176;;;11.69;98.85
62632;BME280;48703;51.248;-0.546;2023-04-28T03:08:43;100179;;;11.66;98.69
62632;BME280;48703;51.248;-0.546;2023-04-28T03:11:45;100183;;;11.64;98.74
62632;BME280;48703;51.248;-0.546;2023-04-28T03:14:47;100184;;;11.62;98.29
62632;BME280;48703;51.248;-0.546;2023-04-28T03:17:49;100188;;;11.60;98.26
62632;BME280;48703;51.248;-0.546;2023-04-28T03:20:51;100186;;;11.58;98.13
62632;BME280;48703;51.248;-0.546;2023-04-28T03:23:53;100176;;;11.57;98.21
62632;BME280;48703;51.248;-0.546;2023-04-28T03:26:55;100172;;;11.54;98.09
62632;BME280;48703;51.248;-0.546;2023-04-28T03:29:57;100171;;;11.53;98.04
62632;BME280;48703;51.248;-0.546;2023-04-28T03:32:59;100169;;;11.51;98.00
62632;BME280;48703;51.248;-0.546;2023-04-28T03:36:01;100169;;;11.49;98.19
62632;BME280;48703;51.248;-0.546;2023-04-28T03:39:03;100169;;;11.48;98.18
62632;BME280;48703;51.248;-0.546;2023-04-28T03:42:05;100162;;;11.46;97.81
62632;BME280;48703;51.248;-0.546;2023-04-28T03:45:07;100164;;;11.45;97.80
62632;BME280;48703;51.248;-0.546;2023-04-28T03:48:09;100163;;;11.43;98.62
62632;BME280;48703;51.248;-0.546;2023-04-28T03:51:11;100169;;;11.42;98.13
62632;BME280;48703;51.248;-0.546;2023-04-28T03:54:13;100170;;;11.39;98.40
62632;BME280;48703;51.248;-0.546;2023-04-28T03:57:15;100173;;;11.39;98.46
62632;BME280;48703;51.248;-0.546;2023-04-28T04:00:17;100174;;;11.38;98.29
62632;BME280;48703;51.248;-0.546;2023-04-28T04:03:19;100173;;;11.38;98.76
62632;BME280;48703;51.248;-0.546;2023-04-28T04:06:21;100174;;;11.37;98.39
62632;BME280;48703;51.248;-0.546;2023-04-28T04:09:23;100175;;;11.37;98.27
62632;BME280;48703;51.248;-0.546;2023-04-28T04:12:25;100176;;;11.37;98.37
62632;BME280;48703;51.248;-0.546;2023-04-28T04:15:27;100178;;;11.37;98.16
62632;BME280;48703;51.248;-0.546;2023-04-28T04:18:29;100178;;;11.36;98.06
62632;BME280;48703;51.248;-0.546;2023-04-28T04:21:31;100184;;;11.36;97.77
62632;BME280;48703;51.248;-0.546;2023-04-28T04:24:33;100189;;;11.37;97.83
62632;BME280;48703;51.248;-0.546;2023-04-28T04:27:35;100193;;;11.37;98.13
62632;BME280;48703;51.248;-0.546;2023-04-28T04:30:37;100191;;;11.37;98.03
62632;BME280;48703;51.248;-0.546;2023-04-28T04:33:39;100192;;;11.37;97.93
62632;BME280;48703;51.248;-0.546;2023-04-28T04:36:41;100196;;;11.37;97.90
62632;BME280;48703;51.248;-0.546;2023-04-28T04:39:43;100198;;;11.36;98.25
62632;BME280;48703;51.248;-0.546;2023-04-28T04:42:45;100202;;;11.35;98.30
62632;BME280;48703;51.248;-0.546;2023-04-28T04:45:47;100204;;;11.36;98.21
62632;BME280;48703;51.248;-0.546;2023-04-28T04:48:50;100205;;;11.36;98.17
62632;BME280;48703;51.248;-0.546;2023-04-28T04:51:52;100208;;;11.36;98.15
62632;BME280;48703;51.248;-0.546;2023-04-28T04:54:54;100213;;;11.36;98.17
62632;BME280;48703;51.248;-0.546;2023-04-28T04:57:56;100219;;;11.37;98.43
62632;BME280;48703;51.248;-0.546;2023-04-28T05:00:58;100219;;;11.36;98.44
62632;BME280;48703;51.248;-0.546;2023-04-28T05:04:00;100219;;;11.36;98.59
62632;BME280;48703;51.248;-0.546;2023-04-28T05:07:02;100220;;;11.36;98.36
62632;BME280;48703;51.248;-0.546;2023-04-28T05:10:04;100222;;;11.37;98.46
62632;BME280;48703;51.248;-0.546;2023-04-28T05:13:06;100224;;;11.38;98.46
62632;BME280;48703;51.248;-0.546;2023-04-28T05:16:08;100223;;;11.39;98.45
62632;BME280;48703;51.248;-0.546;2023-04-28T05:19:10;100223;;;11.38;98.53
62632;BME280;48703;51.248;-0.546;2023-04-28T05:22:12;100224;;;11.37;98.35
62632;BME280;48703;51.248;-0.546;2023-04-28T05:25:14;100230;;;11.35;98.33
62632;BME280;48703;51.248;-0.546;2023-04-28T05:28:16;100240;;;11.34;98.21
62632;BME280;48703;51.248;-0.546;2023-04-28T05:31:18;100238;;;11.34;98.26
62632;BME280;48703;51.248;-0.546;2023-04-28T05:34:20;100237;;;11.34;98.33
62632;BME280;48703;51.248;-0.546;2023-04-28T05:37:22;100239;;;11.33;98.63
62632;BME280;48703;51.248;-0.546;2023-04-28T05:40:24;100240;;;11.34;98.46
62632;BME280;48703;51.248;-0.546;2023-04-28T05:43:26;100242;;;11.33;98.55
62632;BME280;48703;51.248;-0.546;2023-04-28T05:46:28;100246;;;11.34;99.31
62632;BME280;48703;51.248;-0.546;2023-04-28T05:49:30;100252;;;11.35;99.44
62632;BME280;48703;51.248;-0.546;2023-04-28T05:52:32;100257;;;11.35;99.30
62632;BME280;48703;51.248;-0.546;2023-04-28T05:55:34;100260;;;11.36;99.29
62632;BME280;48703;51.248;-0.546;2023-04-28T05:58:36;100260;;;11.39;99.00
62632;BME280;48703;51.248;-0.546;2023-04-28T06:01:38;100261;;;11.42;99.09
62632;BME280;48703;51.248;-0.546;2023-04-28T06:04:40;100266;;;11.44;99.26
62632;BME280;48703;51.248;-0.546;2023-04-28T06:07:42;100270;;;11.47;99.20
62632;BME280;48703;51.248;-0.546;2023-04-28T06:10:44;100273;;;11.50;99.32
62632;BME280;48703;51.248;-0.546;2023-04-28T06:13:46;100276;;;11.52;98.95
62632;BME280;48703;51.248;-0.546;2023-04-28T06:16:49;100280;;;11.56;99.34
62632;BME280;48703;51.248;-0.546;2023-04-28T06:19:50;100283;;;11.58;99.01
62632;BME280;48703;51.248;-0.546;2023-04-28T06:22:52;100286;;;11.62;99.10
62632;BME280;48703;51.248;-0.546;2023-04-28T06:25:54;100288;;;11.65;99.29
62632;BME280;48703;51.248;-0.546;2023-04-28T06:28:56;100288;;;11.67;98.91
62632;BME280;48703;51.248;-0.546;2023-04-28T06:31:58;100289;;;11.71;98.61
62632;BME280;48703;51.248;-0.546;2023-04-28T06:35:00;100292;;;11.73;98.56
62632;BME280;48703;51.248;-0.546;2023-04-28T06:38:02;100296;;;11.75;98.78
62632;BME280;48703;51.248;-0.546;2023-04-28T06:41:04;100302;;;11.77;98.74
62632;BME280;48703;51.248;-0.546;2023-04-28T06:44:06;100304;;;11.81;98.78
62632;BME280;48703;51.248;-0.546;2023-04-28T06:47:08;100308;;;11.82;98.80
62632;BME280;48703;51.248;-0.546;2023-04-28T06:50:10;100313;;;11.84;99.23
62632;BME280;48703;51.248;-0.546;2023-04-28T06:53:12;100314;;;11.87;98.86
62632;BME280;48703;51.248;-0.546;2023-04-28T06:56:14;100312;;;11.90;98.68
62632;BME280;48703;51.248;-0.546;2023-04-28T06:59:16;100313;;;11.94;98.76
62632;BME280;48703;51.248;-0.546;2023-04-28T07:02:18;100319;;;11.97;98.94
62632;BME280;48703;51.248;-0.546;2023-04-28T07:05:20;100323;;;11.99;98.85
62632;BME280;48703;51.248;-0.546;2023-04-28T07:08:22;100323;;;12.03;99.28
62632;BME280;48703;51.248;-0.546;2023-04-28T07:11:24;100323;;;12.07;99.04
62632;BME280;48703;51.248;-0.546;2023-04-28T07:14:26;100325;;;12.10;98.61
62632;BME280;48703;51.248;-0.546;2023-04-28T07:17:28;100328;;;12.13;98.46
62632;BME280;48703;51.248;-0.546;2023-04-28T07:20:30;100332;;;12.17;98.47
62632;BME280;48703;51.248;-0.546;2023-04-28T07:23:32;100339;;;12.20;98.73
62632;BME280;48703;51.248;-0.546;2023-04-28T07:26:34;100343;;;12.22;98.76
62632;BME280;48703;51.248;-0.546;2023-04-28T07:29:36;100344;;;12.25;98.42
62632;BME280;48703;51.248;-0.546;2023-04-28T07:32:38;100348;;;12.27;98.13
62632;BME280;48703;51.248;-0.546;2023-04-28T07:35:40;100350;;;12.31;98.23
62632;BME280;48703;51.248;-0.546;2023-04-28T07:38:42;100352;;;12.38;98.64
62632;BME280;48703;51.248;-0.546;2023-04-28T07:41:45;100354;;;12.43;98.57
62632;BME280;48703;51.248;-0.546;2023-04-28T07:44:47;100355;;;12.48;98.05
62632;BME280;48703;51.248;-0.546;2023-04-28T07:47:49;100359;;;12.49;97.30
62632;BME280;48703;51.248;-0.546;2023-04-28T07:50:51;100361;;;12.50;96.96
62632;BME280;48703;51.248;-0.546;2023-04-28T07:53:53;100367;;;12.52;96.99
62632;BME280;48703;51.248;-0.546;2023-04-28T07:56:55;100374;;;12.55;96.84
62632;BME280;48703;51.248;-0.546;2023-04-28T07:59:57;100376;;;12.60;97.07
62632;BME280;48703;51.248;-0.546;2023-04-28T08:02:59;100379;;;12.64;96.89
62632;BME280;48703;51.248;-0.546;2023-04-28T08:06:01;100378;;;12.67;96.64
62632;BME280;48703;51.248;-0.546;2023-04-28T08:09:03;100378;;;12.71;96.55
62632;BME280;48703;51.248;-0.546;2023-04-28T08:12:05;100378;;;12.75;95.48
62632;BME280;48703;51.248;-0.546;2023-04-28T08:15:07;100383;;;12.82;96.08
62632;BME280;48703;51.248;-0.546;2023-04-28T08:18:09;100383;;;12.90;96.27
62632;BME280;48703;51.248;-0.546;2023-04-28T08:21:11;100381;;;12.95;95.39
62632;BME280;48703;51.248;-0.546;2023-04-28T08:24:13;100382;;;13.00;95.74
62632;BME280;48703;51.248;-0.546;2023-04-28T08:27:15;100389;;;13.04;95.67
62632;BME280;48703;51.248;-0.546;2023-04-28T08:30:17;100390;;;13.08;95.64
62632;BME280;48703;51.248;-0.546;2023-04-28T08:33:19;100390;;;13.11;95.75
62632;BME280;48703;51.248;-0.546;2023-04-28T08:36:21;100394;;;13.12;95.07
62632;BME280;48703;51.248;-0.546;2023-04-28T08:39:23;100400;;;13.13;94.73
62632;BME280;48703;51.248;-0.546;2023-04-28T08:42:25;100405;;;13.14;94.63
62632;BME280;48703;51.248;-0.546;2023-04-28T08:45:27;100407;;;13.13;95.16
62632;BME280;48703;51.248;-0.546;2023-04-28T08:48:29;100411;;;13.10;94.85
62632;BME280;48703;51.248;-0.546;2023-04-28T08:51:32;100414;;;13.09;95.27
62632;BME280;48703;51.248;-0.546;2023-04-28T08:54:33;100413;;;13.12;95.21
62632;BME280;48703;51.248;-0.546;2023-04-28T08:57:37;100415;;;13.13;95.68
62632;BME280;48703;51.248;-0.546;2023-04-28T09:00:37;100421;;;13.18;96.07
62632;BME280;48703;51.248;-0.546;2023-04-28T09:03:39;100428;;;13.25;95.44
62632;BME280;48703;51.248;-0.546;2023-04-28T09:06:41;100430;;;13.28;94.85
62632;BME280;48703;51.248;-0.546;2023-04-28T09:09:43;100432;;;13.30;94.81
62632;BME280;48703;51.248;-0.546;2023-04-28T09:12:45;100434;;;13.32;94.28
62632;BME280;48703;51.248;-0.546;2023-04-28T09:15:47;100438;;;13.32;93.30
62632;BME280;48703;51.248;-0.546;2023-04-28T09:18:55;100444;;;13.28;92.92
62632;BME280;48703;51.248;-0.546;2023-04-28T09:21:52;100448;;;13.27;93.94
62632;BME280;48703;51.248;-0.546;2023-04-28T09:24:53;100454;;;13.27;94.60
62632;BME280;48703;51.248;-0.546;2023-04-28T09:27:55;100458;;;13.32;94.71
62632;BME280;48703;51.248;-0.546;2023-04-28T09:30:57;100462;;;13.35;93.94
62632;BME280;48703;51.248;-0.546;2023-04-28T09:33:59;100457;;;13.36;93.29
62632;BME280;48703;51.248;-0.546;2023-04-28T09:37:03;100452;;;13.45;93.92
62632;BME280;48703;51.248;-0.546;2023-04-28T09:40:04;100450;;;13.55;93.98
62632;BME280;48703;51.248;-0.546;2023-04-28T09:43:05;100455;;;13.65;93.62
62632;BME280;48703;51.248;-0.546;2023-04-28T09:46:07;100462;;;13.74;91.23
62632;BME280;48703;51.248;-0.546;2023-04-28T09:49:10;100464;;;13.80;90.31
62632;BME280;48703;51.248;-0.546;2023-04-28T09:52:12;100465;;;13.82;89.75
62632;BME280;48703;51.248;-0.546;2023-04-28T09:55:14;100467;;;13.89;89.47
62632;BME280;48703;51.248;-0.546;2023-04-28T09:58:16;100467;;;13.90;89.16
62632;BME280;48703;51.248;-0.546;2023-04-28T10:01:18;100472;;;13.89;87.42
62632;BME280;48703;51.248;-0.546;2023-04-28T10:04:20;100473;;;13.85;87.76
62632;BME280;48703;51.248;-0.546;2023-04-28T10:07:22;100477;;;13.88;88.96
62632;BME280;48703;51.248;-0.546;2023-04-28T10:10:24;100478;;;13.88;88.12
62632;BME280;48703;51.248;-0.546;2023-04-28T10:13:26;100481;;;13.93;89.61
62632;BME280;48703;51.248;-0.546;2023-04-28T10:16:29;100489;;;13.97;89.64
62632;BME280;48703;51.248;-0.546;2023-04-28T10:19:30;100496;;;13.97;89.19
62632;BME280;48703;51.248;-0.546;2023-04-28T10:22:36;100500;;;13.91;89.37
62632;BME280;48703;51.248;-0.546;2023-04-28T10:25:34;100503;;;13.90;88.62
62632;BME280;48703;51.248;-0.546;2023-04-28T10:28:36;100507;;;13.99;89.28
62632;BME280;48703;51.248;-0.546;2023-04-28T10:31:38;100512;;;14.08;90.07
62632;BME280;48703;51.248;-0.546;2023-04-28T10:34:40;100518;;;14.18;90.27
62632;BME280;48703;51.248;-0.546;2023-04-28T10:38:14;100521;;;14.20;88.94
62632;BME280;48703;51.248;-0.546;2023-04-28T10:40:44;100523;;;14.23;87.04
62632;BME280;48703;51.248;-0.546;2023-04-28T10:43:46;100523;;;14.34;89.23
62632;BME280;48703;51.248;-0.546;2023-04-28T10:47:04;100527;;;14.50;89.38
62632;BME280;48703;51.248;-0.546;2023-04-28T10:50:06;100531;;;14.52;87.19
62632;BME280;48703;51.248;-0.546;2023-04-28T10:52:52;100532;;;14.51;85.26
62632;BME280;48703;51.248;-0.546;2023-04-28T10:56:04;100538;;;14.52;86.46
62632;BME280;48703;51.248;-0.546;2023-04-28T10:58:56;100539;;;14.48;85.57
62632;BME280;48703;51.248;-0.546;2023-04-28T11:02:20;100541;;;14.46;85.50
62632;BME280;48703;51.248;-0.546;2023-04-28T11:05:16;100546;;;14.52;85.37
62632;BME280;48703;51.248;-0.546;2023-04-28T11:08:34;100546;;;14.62;85.76
62632;BME280;48703;51.248;-0.546;2023-04-28T11:11:12;100549;;;14.67;85.02
62632;BME280;48703;51.248;-0.546;2023-04-28T11:14:30;100544;;;14.72;84.54
62632;BME280;48703;51.248;-0.546;2023-04-28T11:17:08;100541;;;14.78;83.88
62632;BME280;48703;51.248;-0.546;2023-04-28T11:20:11;100546;;;14.81;83.20
62632;BME280;48703;51.248;-0.546;2023-04-28T11:23:12;100549;;;14.81;82.69
62632;BME280;48703;51.248;-0.546;2023-04-28T11:26:14;100547;;;14.88;82.98
62632;BME280;48703;51.248;-0.546;2023-04-28T11:29:16;100547;;;14.97;84.24
62632;BME280;48703;51.248;-0.546;2023-04-28T11:32:24;100551;;;15.02;82.24
62632;BME280;48703;51.248;-0.546;2023-04-28T11:35:20;100553;;;14.98;80.93
62632;BME280;48703;51.248;-0.546;2023-04-28T11:38:22;100556;;;14.91;81.84
62632;BME280;48703;51.248;-0.546;2023-04-28T11:41:24;100560;;;14.88;81.80
62632;BME280;48703;51.248;-0.546;2023-04-28T11:44:27;100565;;;14.83;83.01
62632;BME280;48703;51.248;-0.546;2023-04-28T11:47:29;100571;;;14.80;82.06
62632;BME280;48703;51.248;-0.546;2023-04-28T11:50:34;100573;;;14.80;81.21
62632;BME280;48703;51.248;-0.546;2023-04-28T11:53:40;100573;;;14.79;81.69
62632;BME280;48703;51.248;-0.546;2023-04-28T11:56:36;100574;;;14.85;82.72
62632;BME280;48703;51.248;-0.546;2023-04-28T11:59:36;100569;;;14.90;80.95
62632;BME280;48703;51.248;-0.546;2023-04-28T12:02:38;100570;;;14.93;82.00
62632;BME280;48703;51.248;-0.546;2023-04-28T12:05:43;100572;;;14.94;81.34
62632;BME280;48703;51.248;-0.546;2023-04-28T12:08:42;100577;;;14.94;81.08
62632;BME280;48703;51.248;-0.546;2023-04-28T12:11:52;100577;;;15.00;82.11
62632;BME280;48703;51.248;-0.546;2023-04-28T12:14:54;100583;;;15.09;81.10
62632;BME280;48703;51.248;-0.546;2023-04-28T12:17:49;100585;;;15.17;78.87
62632;BME280;48703;51.248;-0.546;2023-04-28T12:20:51;100587;;;15.24;79.85
62632;BME280;48703;51.248;-0.546;2023-04-28T12:23:53;100591;;;15.32;80.20
62632;BME280;48703;51.248;-0.546;2023-04-28T12:27:12;100593;;;15.35;80.53
62632;BME280;48703;51.248;-0.546;2023-04-28T12:29:57;100599;;;15.33;79.16
62632;BME280;48703;51.248;-0.546;2023-04-28T12:32:59;100604;;;15.33;80.04
62632;BME280;48703;51.248;-0.546;2023-04-28T12:36:01;100608;;;15.31;78.67
62632;BME280;48703;51.248;-0.546;2023-04-28T12:39:03;100606;;;15.37;80.08
62632;BME280;48703;51.248;-0.546;2023-04-28T12:42:05;100609;;;15.52;80.13
62632;BME280;48703;51.248;-0.546;2023-04-28T12:45:07;100607;;;15.65;79.95
62632;BME280;48703;51.248;-0.546;2023-04-28T12:48:09;100610;;;15.78;79.25
62632;BME280;48703;51.248;-0.546;2023-04-28T12:51:11;100615;;;15.89;79.08
62632;BME280;48703;51.248;-0.546;2023-04-28T12:54:13;100619;;;15.99;78.52
62632;BME280;48703;51.248;-0.546;2023-04-28T12:57:15;100619;;;15.99;75.60
62632;BME280;48703;51.248;-0.546;2023-04-28T13:00:17;100618;;;16.02;77.95
62632;BME280;48703;51.248;-0.546;2023-04-28T13:03:19;100622;;;16.07;79.05
62632;BME280;48703;51.248;-0.546;2023-04-28T13:06:21;100628;;;16.09;76.69
62632;BME280;48703;51.248;-0.546;2023-04-28T13:09:24;100629;;;16.07;76.17
62632;BME280;48703;51.248;-0.546;2023-04-28T13:12:25;100634;;;16.05;75.84
62632;BME280;48703;51.248;-0.546;2023-04-28T13:15:27;100641;;;15.99;75.91
62632;BME280;48703;51.248;-0.546;2023-04-28T13:18:29;100642;;;15.97;75.34
62632;BME280;48703;51.248;-0.546;2023-04-28T13:21:31;100645;;;15.94;77.07
62632;BME280;48703;51.248;-0.546;2023-04-28T13:24:33;100648;;;15.92;77.46
62632;BME280;48703;51.248;-0.546;2023-04-28T13:27:35;100653;;;15.94;77.22
62632;BME280;48703;51.248;-0.546;2023-04-28T13:30:37;100650;;;15.90;74.41
62632;BME280;48703;51.248;-0.546;2023-04-28T13:33:39;100645;;;16.00;76.57
62632;BME280;48703;51.248;-0.546;2023-04-28T13:36:41;100644;;;16.17;77.50
62632;BME280;48703;51.248;-0.546;2023-04-28T13:39:43;100644;;;16.30;75.70
62632;BME280;48703;51.248;-0.546;2023-04-28T13:42:45;100646;;;16.39;75.63
62632;BME280;48703;51.248;-0.546;2023-04-28T13:45:47;100647;;;16.46;74.99
62632;BME280;48703;51.248;-0.546;2023-04-28T13:48:49;100648;;;16.55;75.60
62632;BME280;48703;51.248;-0.546;2023-04-28T13:51:51;100649;;;16.62;74.64
62632;BME280;48703;51.248;-0.546;2023-04-28T13:54:53;100646;;;16.62;73.11
62632;BME280;48703;51.248;-0.546;2023-04-28T13:57:55;100646;;;16.67;73.86
62632;BME280;48703;51.248;-0.546;2023-04-28T14:00:57;100649;;;16.70;72.28
62632;BME280;48703;51.248;-0.546;2023-04-28T14:03:59;100653;;;16.67;73.24
62632;BME280;48703;51.248;-0.546;2023-04-28T14:07:02;100651;;;16.67;73.20
62632;BME280;48703;51.248;-0.546;2023-04-28T14:10:03;100658;;;16.60;72.00
62632;BME280;48703;51.248;-0.546;2023-04-28T14:13:05;100662;;;16.58;71.58
62632;BME280;48703;51.248;-0.546;2023-04-28T14:16:07;100662;;;16.55;71.28
62632;BME280;48703;51.248;-0.546;2023-04-28T14:19:09;100657;;;16.62;71.63
62632;BME280;48703;51.248;-0.546;2023-04-28T14:22:11;100656;;;16.77;73.30
62632;BME280;48703;51.248;-0.546;2023-04-28T14:25:14;100655;;;16.95;71.06
62632;BME280;48703;51.248;-0.546;2023-04-28T14:28:16;100654;;;17.11;69.54
62632;BME280;48703;51.248;-0.546;2023-04-28T14:31:18;100656;;;17.25;67.95
62632;BME280;48703;51.248;-0.546;2023-04-28T14:34:20;100658;;;17.35;67.23
62632;BME280;48703;51.248;-0.546;2023-04-28T14:37:22;100652;;;17.46;65.87
62632;BME280;48703;51.248;-0.546;2023-04-28T14:40:24;100652;;;17.63;67.14
62632;BME280;48703;51.248;-0.546;2023-04-28T14:43:26;100657;;;17.78;65.77
62632;BME280;48703;51.248;-0.546;2023-04-28T14:46:28;100656;;;17.95;66.09
62632;BME280;48703;51.248;-0.546;2023-04-28T14:49:30;100655;;;18.06;65.58
62632;BME280;48703;51.248;-0.546;2023-04-28T14:52:32;100653;;;18.03;64.12
62632;BME280;48703;51.248;-0.546;2023-04-28T14:55:34;100653;;;17.99;64.74
62632;BME280;48703;51.248;-0.546;2023-04-28T14:58:36;100656;;;17.92;64.46
62632;BME280;48703;51.248;-0.546;2023-04-28T15:01:38;100654;;;17.87;65.85
62632;BME280;48703;51.248;-0.546;2023-04-28T15:04:40;100652;;;17.84;67.31
62632;BME280;48703;51.248;-0.546;2023-04-28T15:07:42;100656;;;17.69;64.45
62632;BME280;48703;51.248;-0.546;2023-04-28T15:10:44;100658;;;17.57;64.07
62632;BME280;48703;51.248;-0.546;2023-04-28T15:13:46;100666;;;17.43;64.27
62632;BME280;48703;51.248;-0.546;2023-04-28T15:16:48;100669;;;17.37;65.27
62632;BME280;48703;51.248;-0.546;2023-04-28T15:19:50;100677;;;17.32;64.81
62632;BME280;48703;51.248;-0.546;2023-04-28T15:22:52;100680;;;17.27;65.60
62632;BME280;48703;51.248;-0.546;2023-04-28T15:25:54;100679;;;17.27;66.23
62632;BME280;48703;51.248;-0.546;2023-04-28T15:28:56;100680;;;17.26;67.12
62632;BME280;48703;51.248;-0.546;2023-04-28T15:31:58;100683;;;17.24;65.88
62632;BME280;48703;51.248;-0.546;2023-04-28T15:35:00;100690;;;17.23;66.03
62632;BME280;48703;51.248;-0.546;2023-04-28T15:38:02;100690;;;17.22;66.60
62632;BME280;48703;51.248;-0.546;2023-04-28T15:41:04;100693;;;17.25;67.18
62632;BME280;48703;51.248;-0.546;2023-04-28T15:44:06;100689;;;17.26;66.51
62632;BME280;48703;51.248;-0.546;2023-04-28T15:47:08;100692;;;17.29;66.83
62632;BME280;48703;51.248;-0.546;2023-04-28T15:50:10;100696;;;17.32;66.22
62632;BME280;48703;51.248;-0.546;2023-04-28T15:53:12;100698;;;17.33;67.49
62632;BME280;48703;51.248;-0.546;2023-04-28T15:56:14;100704;;;17.31;66.81
62632;BME280;48703;51.248;-0.546;2023-04-28T15:59:16;100710;;;17.33;66.04
62632;BME280;48703;51.248;-0.546;2023-04-28T16:02:19;100720;;;17.31;65.50
62632;BME280;48703;51.248;-0.546;2023-04-28T16:05:20;100724;;;17.26;65.08
62632;BME280;48703;51.248;-0.546;2023-04-28T16:08:22;100726;;;17.28;64.25
62632;BME280;48703;51.248;-0.546;2023-04-28T16:11:24;100726;;;17.27;64.51
62632;BME280;48703;51.248;-0.546;2023-04-28T16:14:26;100725;;;17.27;64.48